Aviation Digital Data Service (ADDS)

Output produced by METARs form (1437 UTC 22 April 2021)
found at http://aviationweather.gov/metar/data/
 
Forecast for: EPDA (DARTOWEK NAVAL , PL)
Text: TAF EPDA 221400Z 2215/2224 30008KT CAVOK
Forecast period: 1500 UTC 22 April 2021 to 0000 UTC 23 April 2021
Forecast type: FROM: standard forecast or significant change
Winds: from the WNW (300 degrees) at 9 MPH (8 knots; 4.1 m/s)
Visibility: 6 or more miles (10+ km)
Ceiling: unknown
Clouds: missing
Weather: NSW  (no significant weather)
Text: PROB30
Forecast period: 1500 to 1800 UTC 22 April 2021
Forecast type: TEMPORARY: The following changes expected for less than half the time period
Winds: from the WNW (300 degrees) at 17 MPH (15 knots; 7.7 m/s)
gusting to 29 MPH (25 knots; 12.9 m/s)
Visibility: 5 miles (8 km)
Ceiling: 2500 feet AGL
Clouds: broken clouds at 2500 feet AGL
Weather: SHRA  (rain showers)